sensor_id;sensor_type;location;lat;lon;timestamp;pressure;altitude;pressure_sealevel;temperature;humidity
10064;BME280;5071;52.360;13.134;2023-07-29T00:02:24;100325.38;;;16.20;100.00
10064;BME280;5071;52.360;13.134;2023-07-29T00:07:26;100330.31;;;16.09;100.00
10064;BME280;5071;52.360;13.134;2023-07-29T00:12:30;100336.13;;;15.98;100.00
10064;BME280;5071;52.360;13.134;2023-07-29T00:17:32;100329.31;;;15.89;100.00
10064;BME280;5071;52.360;13.134;2023-07-29T00:22:34;100335.06;;;15.80;100.00
10064;BME280;5071;52.360;13.134;2023-07-29T00:27:38;100327.28;;;15.74;100.00
10064;BME280;5071;52.360;13.134;2023-07-29T00:32:40;100325.53;;;15.73;100.00
10064;BME280;5071;52.360;13.134;2023-07-29T00:37:43;100324.13;;;15.63;100.00
10064;BME280;5071;52.360;13.134;2023-07-29T00:42:46;100326.31;;;15.53;100.00
10064;BME280;5071;52.360;13.134;2023-07-29T00:47:48;100314.75;;;15.52;100.00
10064;BME280;5071;52.360;13.134;2023-07-29T00:52:50;100305.03;;;15.50;100.00
10064;BME280;5071;52.360;13.134;2023-07-29T00:57:54;100302.84;;;15.38;100.00
10064;BME280;5071;52.360;13.134;2023-07-29T01:02:56;100297.00;;;15.28;100.00
10064;BME280;5071;52.360;13.134;2023-07-29T01:08:03;100291.00;;;15.21;100.00
10064;BME280;5071;52.360;13.134;2023-07-29T01:13:16;100290.50;;;15.11;100.00
10064;BME280;5071;52.360;13.134;2023-07-29T01:18:23;100288.88;;;15.07;100.00
10064;BME280;5071;52.360;13.134;2023-07-29T01:23:29;100282.00;;;15.00;100.00
10064;BME280;5071;52.360;13.134;2023-07-29T01:28:31;100286.59;;;14.96;100.00
10064;BME280;5071;52.360;13.134;2023-07-29T01:33:40;100293.84;;;14.93;100.00
10064;BME280;5071;52.360;13.134;2023-07-29T01:38:47;100293.84;;;14.93;100.00
10064;BME280;5071;52.360;13.134;2023-07-29T01:43:50;100281.88;;;14.80;100.00
10064;BME280;5071;52.360;13.134;2023-07-29T01:48:52;100283.94;;;14.71;100.00
10064;BME280;5071;52.360;13.134;2023-07-29T01:53:56;100287.72;;;14.66;100.00
10064;BME280;5071;52.360;13.134;2023-07-29T01:58:58;100287.97;;;14.60;100.00
10064;BME280;5071;52.360;13.134;2023-07-29T02:04:00;100291.09;;;14.46;100.00
10064;BME280;5071;52.360;13.134;2023-07-29T02:09:03;100279.56;;;14.45;100.00
10064;BME280;5071;52.360;13.134;2023-07-29T02:14:05;100293.06;;;14.41;100.00
10064;BME280;5071;52.360;13.134;2023-07-29T02:19:07;100295.13;;;14.32;100.00
10064;BME280;5071;52.360;13.134;2023-07-29T02:24:10;100283.41;;;14.36;100.00
10064;BME280;5071;52.360;13.134;2023-07-29T02:29:13;100279.97;;;14.33;100.00
10064;BME280;5071;52.360;13.134;2023-07-29T02:34:14;100286.50;;;14.24;100.00
10064;BME280;5071;52.360;13.134;2023-07-29T02:39:17;100288.47;;;14.19;100.00
10064;BME280;5071;52.360;13.134;2023-07-29T02:44:20;100283.06;;;14.20;100.00
10064;BME280;5071;52.360;13.134;2023-07-29T02:49:22;100293.97;;;14.39;100.00
10064;BME280;5071;52.360;13.134;2023-07-29T02:54:25;100296.03;;;14.58;100.00
10064;BME280;5071;52.360;13.134;2023-07-29T02:59:27;100287.09;;;14.59;100.00
10064;BME280;5071;52.360;13.134;2023-07-29T03:04:29;100288.56;;;14.68;100.00
10064;BME280;5071;52.360;13.134;2023-07-29T03:09:36;100300.41;;;14.61;100.00
10064;BME280;5071;52.360;13.134;2023-07-29T03:14:38;100281.81;;;14.56;100.00
10064;BME280;5071;52.360;13.134;2023-07-29T03:19:40;100291.50;;;14.60;100.00
10064;BME280;5071;52.360;13.134;2023-07-29T03:24:43;100279.47;;;14.47;100.00
10064;BME280;5071;52.360;13.134;2023-07-29T03:29:45;100284.31;;;14.62;100.00
10064;BME280;5071;52.360;13.134;2023-07-29T03:34:47;100279.03;;;14.61;100.00
10064;BME280;5071;52.360;13.134;2023-07-29T03:39:50;100272.47;;;14.69;100.00
10064;BME280;5071;52.360;13.134;2023-07-29T03:44:53;100272.72;;;14.87;100.00
10064;BME280;5071;52.360;13.134;2023-07-29T03:49:55;100275.06;;;15.18;100.00
10064;BME280;5071;52.360;13.134;2023-07-29T03:54:58;100265.56;;;15.33;100.00
10064;BME280;5071;52.360;13.134;2023-07-29T04:00:01;100259.69;;;15.47;100.00
10064;BME280;5071;52.360;13.134;2023-07-29T04:05:04;100256.38;;;15.40;100.00
10064;BME280;5071;52.360;13.134;2023-07-29T04:10:08;100266.22;;;15.40;100.00
10064;BME280;5071;52.360;13.134;2023-07-29T04:15:11;100281.31;;;15.41;100.00
10064;BME280;5071;52.360;13.134;2023-07-29T04:20:13;100270.56;;;15.42;100.00
10064;BME280;5071;52.360;13.134;2023-07-29T04:25:16;100265.00;;;15.69;100.00
10064;BME280;5071;52.360;13.134;2023-07-29T04:30:18;100255.75;;;16.00;100.00
10064;BME280;5071;52.360;13.134;2023-07-29T04:35:20;100267.00;;;16.28;100.00
10064;BME280;5071;52.360;13.134;2023-07-29T04:40:24;100264.16;;;16.73;100.00
10064;BME280;5071;52.360;13.134;2023-07-29T04:45:27;100271.44;;;18.02;100.00
10064;BME280;5071;52.360;13.134;2023-07-29T04:50:29;100279.34;;;21.89;100.00
10064;BME280;5071;52.360;13.134;2023-07-29T04:55:33;100283.81;;;27.75;67.16
10064;BME280;5071;52.360;13.134;2023-07-29T05:00:34;100281.41;;;28.21;60.03
10064;BME280;5071;52.360;13.134;2023-07-29T05:05:36;100283.47;;;31.71;51.23
10064;BME280;5071;52.360;13.134;2023-07-29T05:10:40;100284.88;;;28.03;57.31
10064;BME280;5071;52.360;13.134;2023-07-29T05:15:42;100286.19;;;25.14;68.79
10064;BME280;5071;52.360;13.134;2023-07-29T05:20:43;100297.69;;;27.52;62.52
10064;BME280;5071;52.360;13.134;2023-07-29T05:25:47;100286.28;;;26.55;63.29
10064;BME280;5071;52.360;13.134;2023-07-29T05:30:49;100287.59;;;25.75;71.37
10064;BME280;5071;52.360;13.134;2023-07-29T05:35:50;100273.91;;;27.74;61.14
10064;BME280;5071;52.360;13.134;2023-07-29T05:40:54;100273.22;;;25.18;69.43
10064;BME280;5071;52.360;13.134;2023-07-29T05:45:56;100253.84;;;23.84;76.13
10064;BME280;5071;52.360;13.134;2023-07-29T05:50:57;100249.38;;;24.07;76.34
10064;BME280;5071;52.360;13.134;2023-07-29T05:56:01;100246.41;;;28.06;62.28
10064;BME280;5071;52.360;13.134;2023-07-29T06:01:03;100251.16;;;31.06;50.90
10064;BME280;5071;52.360;13.134;2023-07-29T06:06:04;100246.97;;;34.34;44.12
10064;BME280;5071;52.360;13.134;2023-07-29T06:11:07;100247.44;;;36.08;38.08
10064;BME280;5071;52.360;13.134;2023-07-29T06:16:09;100254.28;;;37.25;37.48
10064;BME280;5071;52.360;13.134;2023-07-29T06:21:11;100254.94;;;39.02;34.97
10064;BME280;5071;52.360;13.134;2023-07-29T06:26:15;100259.34;;;37.22;37.86
10064;BME280;5071;52.360;13.134;2023-07-29T06:31:17;100273.78;;;38.20;36.38
10064;BME280;5071;52.360;13.134;2023-07-29T06:36:19;100278.97;;;36.92;37.70
10064;BME280;5071;52.360;13.134;2023-07-29T06:41:23;100269.22;;;35.45;40.10
10064;BME280;5071;52.360;13.134;2023-07-29T06:46:24;100276.16;;;36.35;38.72
10064;BME280;5071;52.360;13.134;2023-07-29T06:51:26;100277.41;;;37.59;36.38
10064;BME280;5071;52.360;13.134;2023-07-29T06:56:30;100263.59;;;35.53;39.96
10064;BME280;5071;52.360;13.134;2023-07-29T07:01:32;100260.94;;;34.71;42.48
10064;BME280;5071;52.360;13.134;2023-07-29T07:06:34;100268.28;;;35.89;39.53
10064;BME280;5071;52.360;13.134;2023-07-29T07:11:38;100273.50;;;33.89;44.72
10064;BME280;5071;52.360;13.134;2023-07-29T07:16:40;100267.31;;;33.08;45.69
10064;BME280;5071;52.360;13.134;2023-07-29T07:21:43;100267.59;;;33.29;45.07
10064;BME280;5071;52.360;13.134;2023-07-29T07:26:47;100271.94;;;33.55;44.81
10064;BME280;5071;52.360;13.134;2023-07-29T07:31:50;100252.84;;;32.58;46.47
10064;BME280;5071;52.360;13.134;2023-07-29T07:36:53;100233.44;;;32.35;48.48
10064;BME280;5071;52.360;13.134;2023-07-29T07:41:56;100234.31;;;29.23;57.32
10064;BME280;5071;52.360;13.134;2023-07-29T07:46:58;100221.69;;;29.58;57.46
10064;BME280;5071;52.360;13.134;2023-07-29T07:52:03;100220.50;;;31.11;52.63
10064;BME280;5071;52.360;13.134;2023-07-29T07:57:06;100224.09;;;31.54;49.82
10064;BME280;5071;52.360;13.134;2023-07-29T08:02:08;100219.34;;;31.22;52.58
10064;BME280;5071;52.360;13.134;2023-07-29T08:07:10;100221.94;;;30.62;54.02
10064;BME280;5071;52.360;13.134;2023-07-29T08:12:13;100215.97;;;29.97;55.12
10064;BME280;5071;52.360;13.134;2023-07-29T08:17:15;100211.44;;;28.59;59.82
10064;BME280;5071;52.360;13.134;2023-07-29T08:22:17;100205.41;;;28.83;58.31
10064;BME280;5071;52.360;13.134;2023-07-29T08:27:20;100198.66;;;28.87;58.83
10064;BME280;5071;52.360;13.134;2023-07-29T08:32:22;100200.38;;;28.41;58.43
10064;BME280;5071;52.360;13.134;2023-07-29T08:37:24;100192.50;;;27.79;63.31
10064;BME280;5071;52.360;13.134;2023-07-29T08:42:29;100192.78;;;28.35;59.80
10064;BME280;5071;52.360;13.134;2023-07-29T08:47:32;100192.94;;;28.14;59.88
10064;BME280;5071;52.360;13.134;2023-07-29T08:52:35;100191.47;;;28.39;60.44
10064;BME280;5071;52.360;13.134;2023-07-29T08:57:39;100180.03;;;29.00;58.86
10064;BME280;5071;52.360;13.134;2023-07-29T09:02:41;100180.31;;;29.89;55.50
10064;BME280;5071;52.360;13.134;2023-07-29T09:07:44;100184.53;;;30.79;54.12
10064;BME280;5071;52.360;13.134;2023-07-29T09:12:48;100177.31;;;31.05;51.79
10064;BME280;5071;52.360;13.134;2023-07-29T09:17:51;100167.16;;;30.62;52.96
10064;BME280;5071;52.360;13.134;2023-07-29T09:22:53;100162.31;;;30.04;53.63
10064;BME280;5071;52.360;13.134;2023-07-29T09:27:59;100164.94;;;29.24;54.72
10064;BME280;5071;52.360;13.134;2023-07-29T09:33:01;100149.88;;;29.92;53.54
10064;BME280;5071;52.360;13.134;2023-07-29T09:38:04;100151.66;;;31.22;51.08
10064;BME280;5071;52.360;13.134;2023-07-29T09:43:09;100145.91;;;31.50;50.73
10064;BME280;5071;52.360;13.134;2023-07-29T09:48:11;100146.94;;;31.98;49.35
10064;BME280;5071;52.360;13.134;2023-07-29T09:53:14;100136.38;;;31.19;48.97
10064;BME280;5071;52.360;13.134;2023-07-29T09:58:19;100130.28;;;29.42;56.36
10064;BME280;5071;52.360;13.134;2023-07-29T10:03:21;100123.63;;;28.81;57.11
10064;BME280;5071;52.360;13.134;2023-07-29T10:08:24;100117.91;;;30.79;53.12
10064;BME280;5071;52.360;13.134;2023-07-29T10:13:28;100112.41;;;30.36;49.97
10064;BME280;5071;52.360;13.134;2023-07-29T10:18:31;100104.38;;;29.73;52.64
10064;BME280;5071;52.360;13.134;2023-07-29T10:23:38;100100.00;;;30.24;50.98
10064;BME280;5071;52.360;13.134;2023-07-29T10:28:47;100093.34;;;30.61;51.84
10064;BME280;5071;52.360;13.134;2023-07-29T10:33:49;100095.16;;;29.92;52.23
10064;BME280;5071;52.360;13.134;2023-07-29T10:38:52;100081.84;;;29.17;55.46
10064;BME280;5071;52.360;13.134;2023-07-29T10:43:55;100076.44;;;27.67;58.96
10064;BME280;5071;52.360;13.134;2023-07-29T10:48:57;100114.84;;;25.17;72.65
10064;BME280;5071;52.360;13.134;2023-07-29T10:54:01;100131.84;;;22.87;92.01
10064;BME280;5071;52.360;13.134;2023-07-29T10:59:31;100122.28;;;22.58;96.07
10064;BME280;5071;52.360;13.134;2023-07-29T11:04:46;100113.63;;;23.26;94.21
10064;BME280;5071;52.360;13.134;2023-07-29T11:09:52;100112.06;;;24.51;90.78
10064;BME280;5071;52.360;13.134;2023-07-29T11:15:02;100110.19;;;23.84;89.44
10064;BME280;5071;52.360;13.134;2023-07-29T11:20:06;100092.63;;;23.77;88.78
10064;BME280;5071;52.360;13.134;2023-07-29T11:25:09;100101.38;;;24.16;86.51
10064;BME280;5071;52.360;13.134;2023-07-29T11:30:15;100107.47;;;23.48;91.18
10064;BME280;5071;52.360;13.134;2023-07-29T11:35:18;100103.59;;;23.40;92.15
10064;BME280;5071;52.360;13.134;2023-07-29T11:40:20;100083.38;;;22.84;97.60
10064;BME280;5071;52.360;13.134;2023-07-29T11:45:24;100086.00;;;23.10;93.74
10064;BME280;5071;52.360;13.134;2023-07-29T11:50:36;100080.41;;;22.87;97.96
10064;BME280;5071;52.360;13.134;2023-07-29T11:55:38;100094.78;;;23.25;93.80
10064;BME280;5071;52.360;13.134;2023-07-29T12:00:41;100098.44;;;22.76;99.00
10064;BME280;5071;52.360;13.134;2023-07-29T12:05:44;100122.94;;;22.48;100.00
10064;BME280;5071;52.360;13.134;2023-07-29T12:10:46;100115.72;;;21.85;94.82
10064;BME280;5071;52.360;13.134;2023-07-29T12:15:50;100107.28;;;22.02;92.16
10064;BME280;5071;52.360;13.134;2023-07-29T12:20:55;100126.41;;;22.25;93.78
10064;BME280;5071;52.360;13.134;2023-07-29T12:25:58;100120.63;;;23.53;85.62
10064;BME280;5071;52.360;13.134;2023-07-29T12:31:01;100127.78;;;24.70;78.60
10064;BME280;5071;52.360;13.134;2023-07-29T12:36:08;100126.88;;;25.47;79.78
10064;BME280;5071;52.360;13.134;2023-07-29T12:41:10;100098.25;;;25.32;76.10
10064;BME280;5071;52.360;13.134;2023-07-29T12:46:13;100094.19;;;24.82;80.03
10064;BME280;5071;52.360;13.134;2023-07-29T12:51:15;100096.09;;;25.03;79.50
10064;BME280;5071;52.360;13.134;2023-07-29T12:56:17;100099.03;;;25.76;76.77
10064;BME280;5071;52.360;13.134;2023-07-29T13:01:20;100096.13;;;25.89;77.43
10064;BME280;5071;52.360;13.134;2023-07-29T13:06:22;100094.94;;;26.64;74.67
10064;BME280;5071;52.360;13.134;2023-07-29T13:11:25;100095.88;;;26.94;71.71
10064;BME280;5071;52.360;13.134;2023-07-29T13:16:28;100099.94;;;27.68;71.49
10064;BME280;5071;52.360;13.134;2023-07-29T13:21:30;100092.84;;;28.14;68.48
10064;BME280;5071;52.360;13.134;2023-07-29T13:26:32;100091.75;;;27.87;65.91
10064;BME280;5071;52.360;13.134;2023-07-29T13:31:36;100093.38;;;27.41;70.06
10064;BME280;5071;52.360;13.134;2023-07-29T13:36:38;100087.19;;;27.59;66.16
10064;BME280;5071;52.360;13.134;2023-07-29T13:41:40;100074.09;;;26.53;71.01
10064;BME280;5071;52.360;13.134;2023-07-29T13:46:43;100075.06;;;26.43;69.40
10064;BME280;5071;52.360;13.134;2023-07-29T13:51:45;100075.00;;;27.43;66.88
10064;BME280;5071;52.360;13.134;2023-07-29T13:56:47;100074.91;;;28.02;66.28
10064;BME280;5071;52.360;13.134;2023-07-29T14:01:50;100067.81;;;28.84;62.73
10064;BME280;5071;52.360;13.134;2023-07-29T14:06:52;100063.50;;;28.63;63.06
10064;BME280;5071;52.360;13.134;2023-07-29T14:12:00;100065.75;;;28.03;66.72
10064;BME280;5071;52.360;13.134;2023-07-29T14:17:04;100048.75;;;27.52;64.04
10064;BME280;5071;52.360;13.134;2023-07-29T14:22:06;100037.41;;;27.47;66.18
10064;BME280;5071;52.360;13.134;2023-07-29T14:27:07;100033.63;;;26.80;68.25
10064;BME280;5071;52.360;13.134;2023-07-29T14:32:11;100036.03;;;26.63;66.57
10064;BME280;5071;52.360;13.134;2023-07-29T14:37:13;100034.44;;;25.89;71.00
10064;BME280;5071;52.360;13.134;2023-07-29T14:42:15;100040.41;;;25.83;70.02
10064;BME280;5071;52.360;13.134;2023-07-29T14:47:18;100054.84;;;25.09;71.72
10064;BME280;5071;52.360;13.134;2023-07-29T14:52:20;100066.00;;;25.06;73.67
10064;BME280;5071;52.360;13.134;2023-07-29T14:57:22;100059.09;;;24.91;72.36
10064;BME280;5071;52.360;13.134;2023-07-29T15:02:25;100044.06;;;25.30;72.76
10064;BME280;5071;52.360;13.134;2023-07-29T15:07:27;100053.56;;;26.40;70.03
10064;BME280;5071;52.360;13.134;2023-07-29T15:12:29;100052.03;;;27.36;64.31
10064;BME280;5071;52.360;13.134;2023-07-29T15:17:32;100046.59;;;27.17;64.14
10064;BME280;5071;52.360;13.134;2023-07-29T15:22:35;100097.94;;;25.46;69.40
10064;BME280;5071;52.360;13.134;2023-07-29T15:27:37;100119.75;;;17.39;100.00
10064;BME280;5071;52.360;13.134;2023-07-29T15:32:40;100125.91;;;17.76;100.00
10064;BME280;5071;52.360;13.134;2023-07-29T15:37:42;100098.44;;;17.71;100.00
10064;BME280;5071;52.360;13.134;2023-07-29T15:42:44;100102.84;;;18.88;100.00
10064;BME280;5071;52.360;13.134;2023-07-29T15:47:48;100123.66;;;20.07;100.00
10064;BME280;5071;52.360;13.134;2023-07-29T15:52:50;100124.44;;;21.88;100.00
10064;BME280;5071;52.360;13.134;2023-07-29T15:57:53;100131.63;;;22.15;98.67
10064;BME280;5071;52.360;13.134;2023-07-29T16:02:56;100143.56;;;20.91;100.00
10064;BME280;5071;52.360;13.134;2023-07-29T16:07:58;100141.31;;;20.70;100.00
10064;BME280;5071;52.360;13.134;2023-07-29T16:13:00;100141.56;;;20.80;100.00
10064;BME280;5071;52.360;13.134;2023-07-29T16:18:03;100144.44;;;20.91;100.00
10064;BME280;5071;52.360;13.134;2023-07-29T16:23:05;100133.25;;;21.52;100.00
10064;BME280;5071;52.360;13.134;2023-07-29T16:28:10;100141.28;;;21.66;99.11
10064;BME280;5071;52.360;13.134;2023-07-29T16:33:14;100148.94;;;21.32;99.98
10064;BME280;5071;52.360;13.134;2023-07-29T16:38:16;100132.19;;;21.27;99.38
10064;BME280;5071;52.360;13.134;2023-07-29T16:43:18;100141.75;;;21.19;100.00
10064;BME280;5071;52.360;13.134;2023-07-29T16:48:22;100154.22;;;21.07;100.00
10064;BME280;5071;52.360;13.134;2023-07-29T16:53:24;100133.81;;;21.57;98.76
10064;BME280;5071;52.360;13.134;2023-07-29T16:58:26;100140.56;;;21.90;99.39
10064;BME280;5071;52.360;13.134;2023-07-29T17:03:30;100142.66;;;22.50;95.26
10064;BME280;5071;52.360;13.134;2023-07-29T17:08:32;100159.41;;;23.18;92.74
10064;BME280;5071;52.360;13.134;2023-07-29T17:13:34;100159.34;;;23.66;84.93
10064;BME280;5071;52.360;13.134;2023-07-29T17:18:38;100156.84;;;23.52;85.68
10064;BME280;5071;52.360;13.134;2023-07-29T17:23:42;100152.81;;;23.34;91.25
10064;BME280;5071;52.360;13.134;2023-07-29T17:28:43;100161.88;;;23.45;87.89
10064;BME280;5071;52.360;13.134;2023-07-29T17:33:47;100159.16;;;23.21;89.03
10064;BME280;5071;52.360;13.134;2023-07-29T17:38:48;100164.19;;;23.02;87.82
10064;BME280;5071;52.360;13.134;2023-07-29T17:43:50;100161.22;;;22.81;91.66
10064;BME280;5071;52.360;13.134;2023-07-29T17:48:54;100159.69;;;22.77;91.44
10064;BME280;5071;52.360;13.134;2023-07-29T17:53:56;100156.69;;;22.56;89.92
10064;BME280;5071;52.360;13.134;2023-07-29T17:58:58;100157.59;;;22.30;93.22
10064;BME280;5071;52.360;13.134;2023-07-29T18:04:01;100169.88;;;21.96;94.63
10064;BME280;5071;52.360;13.134;2023-07-29T18:09:03;100175.69;;;21.90;94.83
10064;BME280;5071;52.360;13.134;2023-07-29T18:14:05;100175.41;;;21.67;95.97
10064;BME280;5071;52.360;13.134;2023-07-29T18:19:09;100172.25;;;21.48;97.18
10064;BME280;5071;52.360;13.134;2023-07-29T18:24:11;100185.16;;;21.15;100.00
10064;BME280;5071;52.360;13.134;2023-07-29T18:29:13;100192.94;;;21.06;100.00
10064;BME280;5071;52.360;13.134;2023-07-29T18:34:16;100190.66;;;20.56;100.00
10064;BME280;5071;52.360;13.134;2023-07-29T18:39:18;100189.69;;;20.14;100.00
10064;BME280;5071;52.360;13.134;2023-07-29T18:44:20;100186.25;;;19.66;100.00
10064;BME280;5071;52.360;13.134;2023-07-29T18:49:24;100183.00;;;19.29;100.00
10064;BME280;5071;52.360;13.134;2023-07-29T18:54:26;100189.25;;;18.82;100.00
10064;BME280;5071;52.360;13.134;2023-07-29T18:59:28;100196.94;;;18.56;100.00
10064;BME280;5071;52.360;13.134;2023-07-29T19:04:32;100202.31;;;18.39;100.00
10064;BME280;5071;52.360;13.134;2023-07-29T19:09:34;100200.78;;;18.17;100.00
10064;BME280;5071;52.360;13.134;2023-07-29T19:14:36;100211.63;;;18.16;100.00
10064;BME280;5071;52.360;13.134;2023-07-29T19:19:39;100209.81;;;17.99;100.00
10064;BME280;5071;52.360;13.134;2023-07-29T19:24:41;100218.84;;;17.79;100.00
10064;BME280;5071;52.360;13.134;2023-07-29T19:29:43;100227.44;;;17.68;100.00
10064;BME280;5071;52.360;13.134;2023-07-29T19:34:46;100226.88;;;17.61;100.00
10064;BME280;5071;52.360;13.134;2023-07-29T19:39:48;100227.66;;;17.46;100.00
10064;BME280;5071;52.360;13.134;2023-07-29T19:44:50;100225.97;;;17.43;100.00
10064;BME280;5071;52.360;13.134;2023-07-29T19:49:54;100229.91;;;17.36;100.00
10064;BME280;5071;52.360;13.134;2023-07-29T19:54:55;100226.31;;;17.55;100.00
10064;BME280;5071;52.360;13.134;2023-07-29T19:59:57;100238.09;;;17.33;100.00
10064;BME280;5071;52.360;13.134;2023-07-29T20:05:00;100235.50;;;17.13;100.00
10064;BME280;5071;52.360;13.134;2023-07-29T20:10:02;100240.81;;;16.95;100.00
10064;BME280;5071;52.360;13.134;2023-07-29T20:15:05;100246.72;;;16.83;100.00
10064;BME280;5071;52.360;13.134;2023-07-29T20:20:10;100253.09;;;16.80;100.00
10064;BME280;5071;52.360;13.134;2023-07-29T20:25:12;100252.09;;;16.83;100.00
10064;BME280;5071;52.360;13.134;2023-07-29T20:30:13;100264.34;;;17.07;100.00
10064;BME280;5071;52.360;13.134;2023-07-29T20:35:17;100268.13;;;17.03;100.00
10064;BME280;5071;52.360;13.134;2023-07-29T20:40:19;100260.00;;;17.24;100.00
10064;BME280;5071;52.360;13.134;2023-07-29T20:45:20;100273.19;;;17.47;100.00
10064;BME280;5071;52.360;13.134;2023-07-29T20:50:24;100260.59;;;17.31;100.00
10064;BME280;5071;52.360;13.134;2023-07-29T20:55:28;100271.47;;;17.08;100.00
10064;BME280;5071;52.360;13.134;2023-07-29T21:00:29;100273.13;;;16.92;100.00
10064;BME280;5071;52.360;13.134;2023-07-29T21:05:34;100264.28;;;16.90;100.00
10064;BME280;5071;52.360;13.134;2023-07-29T21:10:36;100270.31;;;16.95;100.00
10064;BME280;5071;52.360;13.134;2023-07-29T21:15:38;100273.91;;;16.94;100.00
10064;BME280;5071;52.360;13.134;2023-07-29T21:20:41;100272.75;;;17.00;100.00
10064;BME280;5071;52.360;13.134;2023-07-29T21:25:45;100267.03;;;17.07;100.00
10064;BME280;5071;52.360;13.134;2023-07-29T21:30:47;100275.94;;;16.89;100.00
10064;BME280;5071;52.360;13.134;2023-07-29T21:35:50;100278.97;;;17.00;100.00
10064;BME280;5071;52.360;13.134;2023-07-29T21:40:52;100281.88;;;16.96;100.00
10064;BME280;5071;52.360;13.134;2023-07-29T21:45:55;100283.34;;;17.03;100.00
10064;BME280;5071;52.360;13.134;2023-07-29T21:50:58;100279.28;;;16.94;100.00
10064;BME280;5071;52.360;13.134;2023-07-29T21:56:00;100287.19;;;16.97;100.00
10064;BME280;5071;52.360;13.134;2023-07-29T22:01:02;100289.16;;;17.13;100.00
10064;BME280;5071;52.360;13.134;2023-07-29T22:06:06;100287.81;;;17.02;100.00
10064;BME280;5071;52.360;13.134;2023-07-29T22:11:08;100282.91;;;16.93;100.00
10064;BME280;5071;52.360;13.134;2023-07-29T22:16:10;100283.72;;;16.95;100.00
10064;BME280;5071;52.360;13.134;2023-07-29T22:21:13;100288.69;;;16.84;100.00
10064;BME280;5071;52.360;13.134;2023-07-29T22:26:16;100288.06;;;16.77;100.00
10064;BME280;5071;52.360;13.134;2023-07-29T22:31:18;100292.69;;;16.74;100.00
10064;BME280;5071;52.360;13.134;2023-07-29T22:36:22;100291.91;;;16.51;100.00
10064;BME280;5071;52.360;13.134;2023-07-29T22:41:24;100298.13;;;16.51;100.00
10064;BME280;5071;52.360;13.134;2023-07-29T22:46:26;100305.56;;;16.45;100.00
10064;BME280;5071;52.360;13.134;2023-07-29T22:51:30;100304.03;;;16.19;100.00
10064;BME280;5071;52.360;13.134;2023-07-29T22:56:32;100308.75;;;16.12;100.00
10064;BME280;5071;52.360;13.134;2023-07-29T23:01:34;100314.53;;;16.23;100.00
10064;BME280;5071;52.360;13.134;2023-07-29T23:06:38;100320.03;;;16.20;100.00
10064;BME280;5071;52.360;13.134;2023-07-29T23:11:40;100314.31;;;16.07;100.00
10064;BME280;5071;52.360;13.134;2023-07-29T23:16:43;100313.78;;;16.20;100.00
10064;BME280;5071;52.360;13.134;2023-07-29T23:21:46;100316.47;;;16.20;100.00
10064;BME280;5071;52.360;13.134;2023-07-29T23:26:48;100306.75;;;16.17;100.00
10064;BME280;5071;52.360;13.134;2023-07-29T23:31:53;100312.91;;;16.19;100.00
10064;BME280;5071;52.360;13.134;2023-07-29T23:36:56;100329.25;;;16.13;100.00
10064;BME280;5071;52.360;13.134;2023-07-29T23:41:58;100335.84;;;16.04;100.00
10064;BME280;5071;52.360;13.134;2023-07-29T23:47:00;100335.13;;;15.79;100.00
10064;BME280;5071;52.360;13.134;2023-07-29T23:52:05;100330.19;;;15.68;100.00
10064;BME280;5071;52.360;13.134;2023-07-29T23:57:07;100322.41;;;15.62;100.00
